Airfield :
LOGIN :

Register | Disclaimer

   EN    FR    IT 

 










Legend :    VFR   Marginal VFR   IFR   Intensive IFR   Very Intensive IFR
Visi :
Ceiling :
>= 8 km
>= 3000ft
5 to 8 km
1000 to 3000 ft
1500m to 5 km
500 to 1000 ft
800 to 1500m
200 to 500 ft
< 800m
< 200 ft
Symbols :   Thunderstorms  Fog  Heavy snow  Heavy precipitations  Wind > 20 kt
SIGMETs :     Misc.  Thunderstorms  Icing  Turbulence  Mountain Waves  Volcanic Ashes






- Airport Elevation : 100 ft
- IATA code : DCI


LIED - Decimomannu Air Base

CURRENT METAR :
  • 280255Z 27002KT CAVOK 05/04 Q1019 RMK SKC VIS MIN 9999 WIND THR35 /////KT WIND THR17 29002KT BLU

EXPIRED METARs :
  • 280155Z 33004KT CAVOK 05/04 Q1020
  • 272155Z 05004KT CAVOK 08/07 Q1021 RMK SKC VIS MIN 9999 WIND THR35 /////KT WIND THR17 06002KT BLU
  • 280055Z 06003KT CAVOK 05/05 Q1020 RMK SKC VIS MIN 9999 WIND THR35 /////KT WIND THR17 07003KT BLU

TAF TAF LIED
Valid from the 28 at 03:00 until the 28 at 12:00 UTC


280200Z 2803/2812 VRB04KT CAVOK
BECMG 2811/2812 16010KT 9999 SCT020 BKN090



MET'MAP, your aeronautical weather chart ! - Copyright ORBIFLY December 2007 - Disclaimer

ORBIFLY MET'MAP TEAM :

Programming & Development : Alexandra Zaïnal
Original concept : Baudouin d'Aumeries
Technical & hardware support : Manuel Goepfert
Assistance : Marc-Olivier Méhu




SOURCES & CREDITS :

   NOAA